Time;durP1;ratioP1;P1;durP2;ratioP2;P2;SDS_P1;SDS_P2;PMS_P1;PMS_P2;Temp;Humidity;BMP_temperature;BMP_pressure;BME280_temperature;BME280_humidity;BME280_pressure;Samples;Min_cycle;Max_cycle;Signal;HPM_P1;HPM_P2
2023/04/25 00:02:19;;;;;;;20.00;4.55;;;;;;;;;;5035056;28;20046;-60
2023/04/25 00:04:46;;;;;;;16.83;3.95;;;;;;;;;;5045465;28;20095;-61
2023/04/25 00:07:12;;;;;;;19.67;4.35;;;;;;;;;;5063151;28;20128;-61
2023/04/25 00:09:38;;;;;;;14.18;5.00;;;;;;;;;;5052698;28;20051;-61
2023/04/25 00:12:04;;;;;;;10.95;3.58;;;;;;;;;;5033787;28;20044;-61
2023/04/25 00:14:33;;;;;;;14.52;4.00;;;;;;;;;;5061188;28;20049;-61
2023/04/25 00:16:59;;;;;;;24.67;4.75;;;;;;;;;;5059175;28;20040;-61
2023/04/25 00:19:28;;;;;;;18.30;4.75;;;;;;;;;;5042292;28;20120;-61
2023/04/25 00:21:54;;;;;;;19.63;4.65;;;;;;;;;;5061280;28;20037;-61
2023/04/25 00:24:20;;;;;;;22.30;4.35;;;;;;;;;;5049417;28;20045;-61
2023/04/25 00:26:46;;;;;;;19.30;4.60;;;;;;;;;;5028262;28;20048;-61
2023/04/25 00:29:12;;;;;;;22.67;4.65;;;;;;;;;;5052018;28;20093;-61
2023/04/25 00:31:38;;;;;;;16.83;4.55;;;;;;;;;;5051849;28;20045;-61
2023/04/25 00:34:04;;;;;;;19.55;4.55;;;;;;;;;;5058877;28;20044;-61
2023/04/25 00:36:31;;;;;;;16.77;4.90;;;;;;;;;;5042582;28;20048;-61
2023/04/25 00:38:57;;;;;;;16.23;4.15;;;;;;;;;;5049403;28;20104;-61
2023/04/25 00:41:23;;;;;;;18.10;5.05;;;;;;;;;;5031845;28;20037;-61
2023/04/25 00:43:49;;;;;;;19.90;4.57;;;;;;;;;;5053262;28;20048;-61
2023/04/25 00:46:15;;;;;;;19.88;4.13;;;;;;;;;;5063496;28;20044;-61
2023/04/25 00:48:41;;;;;;;16.10;4.65;;;;;;;;;;5062088;28;20044;-61
2023/04/25 00:51:07;;;;;;;22.10;4.32;;;;;;;;;;5069361;28;20490;-61
2023/04/25 00:53:33;;;;;;;23.73;4.47;;;;;;;;;;5071346;28;20445;-61
2023/04/25 00:55:59;;;;;;;19.23;4.55;;;;;;;;;;5064588;28;20037;-65
2023/04/25 00:58:25;;;;;;;19.27;4.68;;;;;;;;;;5051647;28;20033;-61
2023/04/25 01:00:52;;;;;;;23.90;4.80;;;;;;;;;;5051539;28;20494;-61
2023/04/25 01:03:19;;;;;;;18.90;4.63;;;;;;;;;;5051399;28;20468;-61
2023/04/25 01:05:45;;;;;;;20.55;4.47;;;;;;;;;;5051645;28;20495;-61
2023/04/25 01:08:13;;;;;;;16.42;4.65;;;;;;;;;;5054720;28;20036;-61
2023/04/25 01:10:40;;;;;;;14.82;4.00;;;;;;;;;;5059314;28;20124;-61
2023/04/25 01:13:06;;;;;;;16.52;4.05;;;;;;;;;;5047236;28;20112;-61
2023/04/25 01:15:32;;;;;;;17.73;3.85;;;;;;;;;;5046690;28;20037;-60
2023/04/25 01:18:00;;;;;;;12.27;4.18;;;;;;;;;;5062727;28;20131;-61
2023/04/25 01:20:28;;;;;;;16.95;4.28;;;;;;;;;;5051595;28;20095;-61
2023/04/25 01:22:54;;;;;;;15.40;3.83;;;;;;;;;;5032918;28;20055;-60
2023/04/25 01:25:22;;;;;;;14.10;4.13;;;;;;;;;;5053880;28;20036;-61
2023/04/25 01:27:48;;;;;;;16.88;4.38;;;;;;;;;;5065969;28;20044;-61
2023/04/25 01:30:15;;;;;;;17.58;4.07;;;;;;;;;;5053398;28;20128;-61
2023/04/25 01:32:41;;;;;;;15.57;4.72;;;;;;;;;;5061051;28;20437;-61
2023/04/25 01:35:09;;;;;;;18.58;4.13;;;;;;;;;;5067163;28;20045;-61
2023/04/25 01:37:41;;;;;;;13.75;4.28;;;;;;;;;;5056431;28;20041;-61
2023/04/25 01:40:09;;;;;;;16.10;4.20;;;;;;;;;;5045763;28;20037;-61
2023/04/25 01:42:35;;;;;;;15.38;3.78;;;;;;;;;;5074578;28;20047;-61
2023/04/25 01:45:02;;;;;;;17.27;4.05;;;;;;;;;;5057230;28;20119;-61
2023/04/25 01:47:28;;;;;;;21.30;4.45;;;;;;;;;;5045740;28;20053;-61
2023/04/25 01:49:54;;;;;;;17.45;4.43;;;;;;;;;;5052854;28;20048;-61
2023/04/25 01:52:20;;;;;;;15.32;4.15;;;;;;;;;;5065949;28;20076;-61
2023/04/25 01:54:46;;;;;;;13.35;4.30;;;;;;;;;;5054935;28;20084;-61
2023/04/25 01:57:13;;;;;;;17.58;5.00;;;;;;;;;;5063820;28;20050;-61
2023/04/25 01:59:39;;;;;;;18.77;5.07;;;;;;;;;;5074743;28;20102;-61
2023/04/25 02:02:05;;;;;;;19.40;4.70;;;;;;;;;;5053302;28;20120;-61
2023/04/25 02:04:31;;;;;;;19.60;4.55;;;;;;;;;;5053851;28;20454;-61
2023/04/25 02:06:57;;;;;;;17.67;4.63;;;;;;;;;;5043683;28;20116;-61
2023/04/25 02:09:23;;;;;;;18.20;4.28;;;;;;;;;;5072601;28;20124;-61
2023/04/25 02:11:49;;;;;;;21.02;4.72;;;;;;;;;;5040132;28;20123;-61
2023/04/25 02:14:15;;;;;;;15.75;4.47;;;;;;;;;;5055911;28;20048;-61
2023/04/25 02:16:43;;;;;;;20.60;4.57;;;;;;;;;;5056342;28;20036;-61
2023/04/25 02:19:09;;;;;;;13.13;4.35;;;;;;;;;;5064833;28;20494;-61
2023/04/25 02:21:36;;;;;;;15.82;4.60;;;;;;;;;;5069319;28;20457;-61
2023/04/25 02:24:02;;;;;;;14.45;4.63;;;;;;;;;;5089660;22;20045;-66
2023/04/25 02:26:28;;;;;;;16.55;4.38;;;;;;;;;;5074441;28;20486;-66
2023/04/25 02:28:54;;;;;;;21.90;4.55;;;;;;;;;;5073858;28;20119;-65
2023/04/25 02:31:19;;;;;;;19.83;4.25;;;;;;;;;;5074326;28;20529;-66
2023/04/25 02:33:46;;;;;;;16.23;4.40;;;;;;;;;;5079538;28;20519;-65
2023/04/25 02:36:12;;;;;;;13.70;4.10;;;;;;;;;;5082954;28;20135;-65
2023/04/25 02:38:39;;;;;;;15.65;4.05;;;;;;;;;;5079339;28;20132;-66
2023/04/25 02:41:05;;;;;;;17.00;4.15;;;;;;;;;;5073292;28;20649;-65
2023/04/25 02:43:31;;;;;;;17.65;4.07;;;;;;;;;;5073003;28;20037;-66
2023/04/25 02:45:57;;;;;;;15.57;4.13;;;;;;;;;;5074496;28;20375;-65
2023/04/25 02:48:23;;;;;;;12.75;3.97;;;;;;;;;;5072925;28;20044;-65
2023/04/25 02:50:49;;;;;;;19.20;3.88;;;;;;;;;;5081784;28;20037;-65
2023/04/25 02:53:15;;;;;;;22.15;5.00;;;;;;;;;;5093522;28;20044;-66
2023/04/25 02:55:41;;;;;;;14.13;4.00;;;;;;;;;;5083548;28;20069;-66
2023/04/25 02:58:07;;;;;;;15.65;3.97;;;;;;;;;;5073661;28;20117;-66
2023/04/25 03:00:33;;;;;;;16.85;3.40;;;;;;;;;;5073545;28;20501;-65
2023/04/25 03:02:59;;;;;;;16.50;3.78;;;;;;;;;;5073575;28;20056;-66
2023/04/25 03:05:25;;;;;;;13.55;3.85;;;;;;;;;;5082782;28;20063;-65
2023/04/25 03:07:51;;;;;;;15.00;4.13;;;;;;;;;;5073677;28;20078;-66
2023/04/25 03:10:17;;;;;;;18.25;3.78;;;;;;;;;;5073772;28;20036;-65
2023/04/25 03:12:43;;;;;;;15.90;3.15;;;;;;;;;;5073523;28;20043;-66
2023/04/25 03:15:09;;;;;;;16.10;3.60;;;;;;;;;;5073756;28;20440;-65
2023/04/25 03:17:35;;;;;;;14.90;3.17;;;;;;;;;;5080480;28;20482;-65
2023/04/25 03:20:01;;;;;;;13.80;3.28;;;;;;;;;;5081529;28;20533;-66
2023/04/25 03:22:27;;;;;;;18.27;3.03;;;;;;;;;;5073366;28;20041;-65
2023/04/25 03:24:53;;;;;;;17.20;3.25;;;;;;;;;;5080474;28;20043;-65
2023/04/25 03:27:19;;;;;;;13.52;2.95;;;;;;;;;;5067488;28;20576;-65
2023/04/25 03:29:45;;;;;;;16.40;2.83;;;;;;;;;;5083369;28;20083;-65
2023/04/25 03:32:11;;;;;;;14.38;2.90;;;;;;;;;;5073140;28;20127;-65
2023/04/25 03:34:37;;;;;;;14.52;2.70;;;;;;;;;;5086848;28;20041;-65
2023/04/25 03:37:03;;;;;;;17.08;3.28;;;;;;;;;;5073462;28;20112;-65
2023/04/25 03:39:29;;;;;;;16.67;3.33;;;;;;;;;;5072077;28;20406;-65
2023/04/25 03:41:55;;;;;;;14.88;2.90;;;;;;;;;;5072630;28;20044;-66
2023/04/25 03:44:21;;;;;;;14.63;2.80;;;;;;;;;;5072862;28;20044;-65
2023/04/25 03:46:47;;;;;;;14.90;2.80;;;;;;;;;;5072440;28;20115;-65
2023/04/25 03:49:13;;;;;;;10.35;2.35;;;;;;;;;;5080583;28;20060;-65
2023/04/25 03:51:39;;;;;;;7.63;2.95;;;;;;;;;;5086796;28;20692;-65
2023/04/25 03:54:05;;;;;;;11.60;2.75;;;;;;;;;;5092803;28;20068;-65
2023/04/25 03:56:31;;;;;;;11.40;2.33;;;;;;;;;;5079775;28;20043;-66
2023/04/25 03:58:57;;;;;;;10.73;2.45;;;;;;;;;;5082639;28;20111;-65
2023/04/25 04:01:23;;;;;;;11.20;2.58;;;;;;;;;;5071983;28;20036;-65
2023/04/25 04:03:49;;;;;;;9.02;2.80;;;;;;;;;;5072661;28;20046;-66
2023/04/25 04:06:15;;;;;;;9.10;2.30;;;;;;;;;;5070546;28;20341;-65
2023/04/25 04:08:41;;;;;;;10.55;2.85;;;;;;;;;;5072741;28;20044;-65
2023/04/25 04:11:07;;;;;;;12.73;2.50;;;;;;;;;;5075399;28;20032;-65
2023/04/25 04:13:33;;;;;;;10.45;2.17;;;;;;;;;;5074752;28;20116;-65
2023/04/25 04:15:59;;;;;;;9.55;2.13;;;;;;;;;;5073798;28;20441;-65
2023/04/25 04:18:25;;;;;;;10.27;2.03;;;;;;;;;;5081916;28;20030;-65
2023/04/25 04:20:51;;;;;;;7.25;2.15;;;;;;;;;;5071119;28;20036;-65
2023/04/25 04:23:17;;;;;;;10.88;1.88;;;;;;;;;;5071457;28;20045;-65
2023/04/25 04:25:43;;;;;;;8.45;1.73;;;;;;;;;;5085668;28;20390;-65
2023/04/25 04:28:10;;;;;;;3.35;1.70;;;;;;;;;;5073123;28;20033;-66
2023/04/25 04:30:37;;;;;;;8.57;1.67;;;;;;;;;;5071318;28;20052;-65
2023/04/25 04:33:03;;;;;;;13.45;2.08;;;;;;;;;;5072463;28;20048;-65
2023/04/25 04:35:29;;;;;;;13.52;2.15;;;;;;;;;;5071758;28;20119;-65
2023/04/25 04:37:56;;;;;;;7.55;1.55;;;;;;;;;;5073282;28;20040;-65
2023/04/25 04:40:22;;;;;;;4.90;1.60;;;;;;;;;;5059757;28;20514;-65
2023/04/25 04:42:49;;;;;;;6.18;1.95;;;;;;;;;;5055807;28;20041;-66
2023/04/25 04:45:16;;;;;;;8.23;1.85;;;;;;;;;;5067418;28;20040;-65
2023/04/25 04:47:42;;;;;;;5.95;1.77;;;;;;;;;;5065523;28;20119;-65
2023/04/25 04:50:09;;;;;;;6.28;1.90;;;;;;;;;;5071203;28;20490;-65
2023/04/25 04:52:38;;;;;;;12.80;1.70;;;;;;;;;;5092125;28;20083;-65
2023/04/25 04:55:05;;;;;;;8.07;1.77;;;;;;;;;;5077581;28;20116;-65
2023/04/25 04:57:32;;;;;;;6.65;1.52;;;;;;;;;;5066086;28;20318;-66
2023/04/25 04:59:58;;;;;;;5.43;1.95;;;;;;;;;;5071418;28;20044;-65
2023/04/25 05:02:24;;;;;;;6.28;1.80;;;;;;;;;;5079357;28;20032;-65
2023/04/25 05:04:51;;;;;;;6.22;1.95;;;;;;;;;;5086651;28;20040;-65
2023/04/25 05:07:17;;;;;;;7.80;1.95;;;;;;;;;;5074334;28;20123;-65
2023/04/25 05:09:43;;;;;;;6.47;1.88;;;;;;;;;;5092225;28;20436;-65
2023/04/25 05:12:09;;;;;;;9.98;2.10;;;;;;;;;;5069603;28;20140;-65
2023/04/25 05:14:35;;;;;;;5.65;1.42;;;;;;;;;;5070145;28;20391;-65
2023/04/25 05:17:03;;;;;;;5.32;1.85;;;;;;;;;;5072277;28;21294;-65
2023/04/25 05:19:29;;;;;;;11.77;2.45;;;;;;;;;;5077052;28;20040;-65
2023/04/25 05:21:55;;;;;;;4.82;1.80;;;;;;;;;;5086542;28;20165;-65
2023/04/25 05:24:21;;;;;;;8.68;2.70;;;;;;;;;;5070527;28;20131;-65
2023/04/25 05:26:47;;;;;;;9.13;1.85;;;;;;;;;;5087125;28;20047;-65
2023/04/25 05:29:13;;;;;;;6.07;2.05;;;;;;;;;;5078438;28;20124;-65
2023/04/25 05:31:39;;;;;;;7.57;2.30;;;;;;;;;;5069671;28;20116;-65
2023/04/25 05:34:05;;;;;;;7.63;1.80;;;;;;;;;;5071141;28;20044;-65
2023/04/25 05:36:32;;;;;;;7.88;2.08;;;;;;;;;;5070251;28;20032;-65
2023/04/25 05:38:58;;;;;;;9.25;2.35;;;;;;;;;;5070428;28;20067;-65
2023/04/25 05:41:24;;;;;;;13.13;2.00;;;;;;;;;;5068666;28;20047;-65
2023/04/25 05:43:50;;;;;;;7.38;1.63;;;;;;;;;;5067694;28;20048;-65
2023/04/25 05:46:19;;;;;;;10.27;2.05;;;;;;;;;;5082052;28;20444;-65
2023/04/25 05:48:46;;;;;;;11.85;2.85;;;;;;;;;;5075877;28;20052;-65
2023/04/25 05:51:12;;;;;;;8.43;2.08;;;;;;;;;;5067531;28;20074;-65
2023/04/25 05:53:38;;;;;;;10.20;2.53;;;;;;;;;;5069149;28;20051;-65
2023/04/25 05:56:04;;;;;;;12.13;2.33;;;;;;;;;;5069554;28;20493;-65
2023/04/25 05:58:30;;;;;;;13.73;2.92;;;;;;;;;;5070331;28;20098;-65
2023/04/25 06:00:56;;;;;;;9.32;2.38;;;;;;;;;;5069442;28;20036;-65
2023/04/25 06:03:22;;;;;;;14.10;2.40;;;;;;;;;;5071319;28;20068;-65
2023/04/25 06:05:48;;;;;;;7.80;1.63;;;;;;;;;;5084056;28;20125;-65
2023/04/25 06:08:14;;;;;;;10.85;2.13;;;;;;;;;;5071384;28;20490;-65
2023/04/25 06:10:40;;;;;;;8.85;2.38;;;;;;;;;;5069112;28;20032;-65
2023/04/25 06:13:06;;;;;;;12.02;2.40;;;;;;;;;;5071156;28;20089;-65
2023/04/25 06:15:32;;;;;;;7.93;2.38;;;;;;;;;;5079776;28;20080;-65
2023/04/25 06:17:59;;;;;;;8.95;2.38;;;;;;;;;;5070236;28;20064;-65
2023/04/25 06:20:25;;;;;;;11.95;2.47;;;;;;;;;;5081089;28;20028;-65
2023/04/25 06:22:51;;;;;;;8.52;2.30;;;;;;;;;;5073302;28;20112;-66
2023/04/25 06:25:17;;;;;;;7.80;1.90;;;;;;;;;;5055295;28;20044;-65
2023/04/25 06:27:43;;;;;;;8.82;2.45;;;;;;;;;;5073436;28;20046;-65
2023/04/25 06:30:11;;;;;;;14.32;2.10;;;;;;;;;;5073919;28;20405;-65
2023/04/25 06:32:37;;;;;;;9.85;2.40;;;;;;;;;;5087570;28;20048;-65
2023/04/25 06:35:03;;;;;;;11.07;2.03;;;;;;;;;;5071818;28;20417;-66
2023/04/25 06:37:30;;;;;;;10.40;2.50;;;;;;;;;;5063566;28;20036;-65
2023/04/25 06:39:56;;;;;;;10.90;2.00;;;;;;;;;;5076044;28;20460;-65
2023/04/25 06:42:22;;;;;;;8.50;2.05;;;;;;;;;;5072381;28;20089;-65
2023/04/25 06:44:48;;;;;;;6.20;1.70;;;;;;;;;;5071503;28;20040;-65
2023/04/25 06:47:15;;;;;;;12.50;1.98;;;;;;;;;;5081821;28;20044;-65
2023/04/25 06:49:41;;;;;;;11.75;2.20;;;;;;;;;;5082342;28;20090;-65
2023/04/25 06:52:08;;;;;;;9.55;2.10;;;;;;;;;;5073307;28;20040;-65
2023/04/25 06:54:34;;;;;;;10.90;2.30;;;;;;;;;;5072765;28;20564;-65
2023/04/25 06:57:00;;;;;;;8.82;1.95;;;;;;;;;;5073990;28;20047;-65
2023/04/25 06:59:26;;;;;;;10.30;2.03;;;;;;;;;;5074083;28;20037;-65
2023/04/25 07:01:52;;;;;;;11.48;1.83;;;;;;;;;;5080694;28;20101;-66
2023/04/25 07:04:19;;;;;;;9.77;1.65;;;;;;;;;;5085507;28;20043;-65
2023/04/25 07:06:47;;;;;;;12.85;2.17;;;;;;;;;;5093772;28;20039;-65
2023/04/25 07:09:13;;;;;;;11.38;2.15;;;;;;;;;;5094419;28;20036;-66
2023/04/25 07:11:39;;;;;;;9.20;1.88;;;;;;;;;;5075789;28;20051;-65
2023/04/25 07:14:05;;;;;;;11.02;2.05;;;;;;;;;;5055713;28;20109;-65
2023/04/25 07:16:32;;;;;;;7.60;1.65;;;;;;;;;;5071740;28;20111;-65
2023/04/25 07:18:59;;;;;;;8.52;1.45;;;;;;;;;;5076908;28;20037;-65
2023/04/25 07:21:25;;;;;;;10.38;2.28;;;;;;;;;;5072331;28;20524;-65
2023/04/25 07:23:51;;;;;;;8.40;1.42;;;;;;;;;;5075380;28;20051;-65
2023/04/25 07:26:17;;;;;;;7.65;1.40;;;;;;;;;;5074696;28;20036;-65
2023/04/25 07:28:43;;;;;;;10.13;2.08;;;;;;;;;;5078141;28;20497;-65
2023/04/25 07:31:09;;;;;;;9.05;2.08;;;;;;;;;;5079169;28;20068;-65
2023/04/25 07:33:35;;;;;;;7.25;2.10;;;;;;;;;;5072124;28;20064;-65
2023/04/25 07:36:01;;;;;;;7.88;2.00;;;;;;;;;;5075521;28;20060;-65
2023/04/25 07:38:27;;;;;;;12.77;1.88;;;;;;;;;;5078397;28;20040;-65
2023/04/25 07:40:53;;;;;;;10.45;2.05;;;;;;;;;;5067871;28;20082;-65
2023/04/25 07:43:19;;;;;;;9.63;1.50;;;;;;;;;;5073838;28;20034;-65
2023/04/25 07:45:45;;;;;;;12.85;1.80;;;;;;;;;;5079358;28;20036;-65
2023/04/25 07:48:12;;;;;;;12.30;2.55;;;;;;;;;;5071515;28;20040;-65
2023/04/25 07:50:38;;;;;;;11.00;1.83;;;;;;;;;;5067779;28;20043;-65
2023/04/25 07:53:04;;;;;;;8.07;1.83;;;;;;;;;;5071666;28;20040;-65
2023/04/25 07:55:30;;;;;;;9.88;1.70;;;;;;;;;;5072335;28;20037;-65
2023/04/25 07:57:55;;;;;;;6.32;1.70;;;;;;;;;;5072606;28;20536;-65
2023/04/25 08:00:21;;;;;;;6.13;1.65;;;;;;;;;;5071076;28;20119;-65
2023/04/25 08:02:47;;;;;;;8.35;1.60;;;;;;;;;;5086845;28;20047;-65
2023/04/25 08:05:14;;;;;;;7.05;1.80;;;;;;;;;;5073270;28;20064;-66
2023/04/25 08:07:41;;;;;;;7.68;1.35;;;;;;;;;;5072159;28;20087;-65
2023/04/25 08:10:07;;;;;;;10.07;2.03;;;;;;;;;;5070057;28;20047;-65
2023/04/25 08:12:34;;;;;;;8.18;1.95;;;;;;;;;;5065342;28;20036;-65
2023/04/25 08:15:00;;;;;;;10.48;1.70;;;;;;;;;;5080001;28;20145;-65
2023/04/25 08:17:26;;;;;;;7.72;1.40;;;;;;;;;;5084714;28;20063;-65
2023/04/25 08:19:52;;;;;;;7.22;1.55;;;;;;;;;;5073783;28;20125;-65
2023/04/25 08:22:17;;;;;;;6.22;1.80;;;;;;;;;;5072015;28;20044;-65
2023/04/25 08:24:43;;;;;;;10.73;1.30;;;;;;;;;;5085993;22;20040;-62
2023/04/25 08:27:09;;;;;;;6.88;1.48;;;;;;;;;;5073119;28;20032;-62
2023/04/25 08:29:35;;;;;;;7.88;1.30;;;;;;;;;;5084265;28;20035;-63
2023/04/25 08:32:01;;;;;;;4.50;0.80;;;;;;;;;;5092240;28;20035;-62
2023/04/25 08:34:27;;;;;;;4.30;1.30;;;;;;;;;;5091956;28;20044;-62
2023/04/25 08:36:53;;;;;;;3.00;1.00;;;;;;;;;;5073179;28;20032;-62
2023/04/25 08:39:20;;;;;;;4.05;1.23;;;;;;;;;;5071312;28;20040;-62
2023/04/25 08:41:46;;;;;;;4.80;1.10;;;;;;;;;;5077834;28;20546;-62
2023/04/25 08:44:12;;;;;;;4.35;0.90;;;;;;;;;;5065413;28;20410;-62
2023/04/25 08:46:40;;;;;;;3.70;1.10;;;;;;;;;;5092249;28;20046;-62
2023/04/25 08:49:07;;;;;;;3.45;1.02;;;;;;;;;;5092183;28;20082;-63
2023/04/25 08:51:33;;;;;;;4.70;1.45;;;;;;;;;;5074011;28;20050;-62
2023/04/25 08:54:09;;;;;;;9.35;1.52;;;;;;;;;;5071522;28;20045;-62
2023/04/25 08:56:35;;;;;;;6.68;1.13;;;;;;;;;;5053474;28;20514;-62
2023/04/25 08:59:02;;;;;;;5.47;1.17;;;;;;;;;;5080367;28;20040;-63
2023/04/25 09:01:28;;;;;;;7.50;1.30;;;;;;;;;;5073424;28;20051;-62
2023/04/25 09:03:54;;;;;;;8.80;1.63;;;;;;;;;;5091846;28;20040;-62
2023/04/25 09:06:20;;;;;;;8.55;1.50;;;;;;;;;;5074208;28;20131;-62
2023/04/25 09:08:46;;;;;;;7.75;1.33;;;;;;;;;;5089832;28;20043;-62
2023/04/25 09:11:14;;;;;;;5.22;1.10;;;;;;;;;;5071688;28;20514;-63
2023/04/25 09:13:40;;;;;;;5.72;1.40;;;;;;;;;;5076245;28;20044;-62
2023/04/25 09:16:06;;;;;;;5.80;1.40;;;;;;;;;;5083352;28;20040;-62
2023/04/25 09:18:34;;;;;;;6.35;1.60;;;;;;;;;;5084179;28;20055;-63
2023/04/25 09:21:09;;;;;;;5.50;1.23;;;;;;;;;;5083326;28;20556;-62
2023/04/25 09:23:44;;;;;;;6.65;1.45;;;;;;;;;;5073843;28;20047;-60
2023/04/25 09:26:10;;;;;;;8.73;1.40;;;;;;;;;;5068933;28;20098;-60
2023/04/25 09:28:37;;;;;;;6.28;1.33;;;;;;;;;;5083117;28;20536;-60
2023/04/25 09:31:03;;;;;;;6.15;1.08;;;;;;;;;;5091738;28;20114;-60
2023/04/25 09:33:30;;;;;;;3.55;1.10;;;;;;;;;;5091370;28;20094;-61
2023/04/25 09:36:04;;;;;;;5.72;1.35;;;;;;;;;;5091766;28;20043;-62
2023/04/25 09:38:32;;;;;;;5.25;1.30;;;;;;;;;;5091350;28;20036;-61
2023/04/25 09:41:00;;;;;;;6.85;1.05;;;;;;;;;;5083050;28;20561;-61
2023/04/25 09:43:27;;;;;;;2.70;1.02;;;;;;;;;;5050040;28;20119;-61
2023/04/25 09:45:57;;;;;;;3.90;0.90;;;;;;;;;;5053476;28;20072;-62
2023/04/25 09:48:23;;;;;;;5.35;1.00;;;;;;;;;;5053608;28;20429;-63
2023/04/25 09:51:08;;;;;;;3.08;0.75;;;;;;;;;;5071107;28;20036;-62
2023/04/25 09:53:39;;;;;;;2.97;0.98;;;;;;;;;;5074998;28;20172;-62
2023/04/25 09:56:06;;;;;;;2.45;0.85;;;;;;;;;;5079681;28;20035;-63
2023/04/25 09:58:33;;;;;;;5.05;1.23;;;;;;;;;;5068977;28;20040;-62
2023/04/25 10:01:00;;;;;;;6.68;0.95;;;;;;;;;;5065241;28;20567;-62
2023/04/25 10:03:27;;;;;;;4.03;1.08;;;;;;;;;;5074972;28;20379;-62
2023/04/25 10:05:54;;;;;;;2.70;1.13;;;;;;;;;;5074796;28;20032;-62
2023/04/25 10:08:20;;;;;;;7.30;1.20;;;;;;;;;;5056375;28;20119;-62
2023/04/25 10:10:47;;;;;;;5.95;1.30;;;;;;;;;;5063232;28;20044;-63
2023/04/25 10:13:14;;;;;;;3.58;1.30;;;;;;;;;;5076329;28;20156;-62
2023/04/25 10:15:40;;;;;;;5.68;1.08;;;;;;;;;;5070285;28;20055;-62
2023/04/25 10:18:07;;;;;;;7.82;1.00;;;;;;;;;;5086299;28;20050;-62
2023/04/25 10:20:33;;;;;;;4.18;1.17;;;;;;;;;;5095143;28;20083;-62
2023/04/25 10:23:04;;;;;;;4.85;1.10;;;;;;;;;;5091578;28;20040;-62
2023/04/25 10:25:30;;;;;;;4.30;1.25;;;;;;;;;;5085779;28;20516;-62
2023/04/25 10:27:56;;;;;;;6.32;1.20;;;;;;;;;;5075618;28;20043;-62
2023/04/25 10:30:22;;;;;;;3.40;1.10;;;;;;;;;;5056696;28;20040;-62
2023/04/25 10:32:50;;;;;;;3.47;1.13;;;;;;;;;;5073938;28;20047;-62
2023/04/25 10:35:17;;;;;;;3.30;1.10;;;;;;;;;;5074167;28;20044;-62
2023/04/25 10:37:58;;;;;;;3.50;1.02;;;;;;;;;;5080006;28;20481;-62
2023/04/25 10:40:24;;;;;;;5.03;0.95;;;;;;;;;;5077887;28;20040;-62
2023/04/25 10:42:53;;;;;;;3.15;1.02;;;;;;;;;;5094616;28;20070;-62
2023/04/25 10:45:19;;;;;;;4.70;1.55;;;;;;;;;;5076201;28;20451;-62
2023/04/25 10:47:45;;;;;;;5.40;1.10;;;;;;;;;;5085557;28;20044;-62
2023/04/25 10:50:11;;;;;;;7.05;1.70;;;;;;;;;;5075814;28;20040;-62
2023/04/25 10:52:40;;;;;;;7.13;1.25;;;;;;;;;;5074114;28;20127;-62
2023/04/25 10:55:06;;;;;;;6.25;1.45;;;;;;;;;;5073680;28;20040;-62
2023/04/25 10:57:40;;;;;;;6.05;1.33;;;;;;;;;;5073841;28;20037;-62
2023/04/25 11:00:09;;;;;;;5.50;1.33;;;;;;;;;;5073334;28;20033;-62
2023/04/25 11:02:37;;;;;;;5.82;1.40;;;;;;;;;;5077392;28;20115;-62
2023/04/25 11:05:04;;;;;;;4.05;1.67;;;;;;;;;;5093845;28;20036;-62
2023/04/25 11:07:47;;;;;;;8.55;1.65;;;;;;;;;;5094479;28;20044;-62
2023/04/25 11:10:14;;;;;;;8.23;1.77;;;;;;;;;;5053586;28;20123;-62
2023/04/25 11:12:40;;;;;;;7.28;1.52;;;;;;;;;;5036158;28;20116;-63
2023/04/25 11:15:07;;;;;;;7.18;1.60;;;;;;;;;;5035371;28;20080;-62
2023/04/25 11:17:33;;;;;;;7.03;1.70;;;;;;;;;;5078099;28;20036;-62
2023/04/25 11:20:00;;;;;;;9.18;1.75;;;;;;;;;;5090194;28;20040;-62
2023/04/25 11:22:27;;;;;;;7.78;1.55;;;;;;;;;;5093521;28;20036;-62
2023/04/25 11:24:53;;;;;;;10.45;1.90;;;;;;;;;;5090556;28;20047;-62
2023/04/25 11:27:19;;;;;;;5.82;1.45;;;;;;;;;;5073920;28;20044;-62
2023/04/25 11:29:47;;;;;;;8.10;1.58;;;;;;;;;;5073806;28;20045;-63
2023/04/25 11:32:14;;;;;;;7.25;1.83;;;;;;;;;;5074275;28;20056;-63
2023/04/25 11:34:43;;;;;;;7.88;2.30;;;;;;;;;;5084768;28;20406;-63
2023/04/25 11:37:11;;;;;;;7.03;1.95;;;;;;;;;;5093845;28;20063;-62
2023/04/25 11:39:37;;;;;;;9.25;1.92;;;;;;;;;;5093079;28;20039;-62
2023/04/25 11:42:05;;;;;;;6.90;1.67;;;;;;;;;;5089824;28;20041;-62
2023/04/25 11:44:31;;;;;;;6.75;1.58;;;;;;;;;;5072969;28;20041;-62
2023/04/25 11:46:57;;;;;;;8.93;1.83;;;;;;;;;;5080364;28;20046;-62
2023/04/25 11:49:24;;;;;;;10.45;1.75;;;;;;;;;;5084678;28;20085;-63
2023/04/25 11:51:50;;;;;;;11.35;1.90;;;;;;;;;;5093234;28;20044;-63
2023/04/25 11:54:17;;;;;;;6.70;1.60;;;;;;;;;;5093114;28;20563;-62
2023/04/25 11:56:43;;;;;;;4.70;1.05;;;;;;;;;;5093110;28;20052;-62
2023/04/25 11:59:09;;;;;;;5.03;1.38;;;;;;;;;;5070452;28;20125;-62
2023/04/25 12:01:36;;;;;;;5.10;1.27;;;;;;;;;;5080470;28;20036;-62
2023/04/25 12:04:16;;;;;;;6.55;1.30;;;;;;;;;;5071771;28;20048;-62
2023/04/25 12:06:43;;;;;;;8.85;1.52;;;;;;;;;;5092612;28;20578;-62
2023/04/25 12:09:10;;;;;;;2.90;0.90;;;;;;;;;;5093306;28;20040;-62
2023/04/25 12:11:43;;;;;;;3.47;1.25;;;;;;;;;;5093076;28;20440;-62
2023/04/25 12:14:10;;;;;;;3.97;1.10;;;;;;;;;;5074352;28;20083;-62
2023/04/25 12:16:42;;;;;;;10.07;1.55;;;;;;;;;;5086205;28;20036;-62
2023/04/25 12:19:08;;;;;;;6.57;1.35;;;;;;;;;;5065754;28;20122;-62
2023/04/25 12:21:35;;;;;;;7.05;1.58;;;;;;;;;;5092364;28;20036;-62
2023/04/25 12:24:12;;;;;;;7.60;1.40;;;;;;;;;;5092845;28;20040;-62
2023/04/25 12:26:47;;;;;;;4.35;1.20;;;;;;;;;;5084019;28;20036;-62
2023/04/25 12:29:20;;;;;;;5.63;1.30;;;;;;;;;;5071464;28;20044;-62
2023/04/25 12:31:46;;;;;;;3.58;0.90;;;;;;;;;;5080123;28;20037;-62
2023/04/25 12:34:12;;;;;;;6.97;1.25;;;;;;;;;;5063272;28;20051;-62
2023/04/25 12:36:39;;;;;;;5.80;1.67;;;;;;;;;;5068032;28;20036;-62
2023/04/25 12:39:05;;;;;;;8.50;1.23;;;;;;;;;;5092384;28;20040;-62
2023/04/25 12:41:31;;;;;;;5.43;1.20;;;;;;;;;;5092020;28;20162;-62
2023/04/25 12:43:57;;;;;;;5.30;1.27;;;;;;;;;;5085064;28;20515;-62
2023/04/25 12:46:23;;;;;;;4.40;1.15;;;;;;;;;;5083117;28;20043;-62
2023/04/25 12:48:49;;;;;;;4.88;1.23;;;;;;;;;;5092628;28;20148;-62
2023/04/25 12:51:15;;;;;;;7.35;1.40;;;;;;;;;;5077853;28;20044;-62
2023/04/25 12:53:41;;;;;;;4.20;1.38;;;;;;;;;;5071608;28;20043;-62
2023/04/25 12:56:10;;;;;;;7.07;1.38;;;;;;;;;;5071983;28;20033;-62
2023/04/25 12:58:36;;;;;;;5.30;1.10;;;;;;;;;;5083464;28;20116;-62
2023/04/25 13:01:02;;;;;;;5.53;1.52;;;;;;;;;;5091525;28;20072;-62
2023/04/25 13:03:28;;;;;;;8.40;1.30;;;;;;;;;;5092365;28;20386;-62
2023/04/25 13:05:54;;;;;;;3.90;1.55;;;;;;;;;;5091748;28;20036;-62
2023/04/25 13:08:20;;;;;;;3.85;1.20;;;;;;;;;;5077493;28;20037;-62
2023/04/25 13:10:46;;;;;;;3.17;1.40;;;;;;;;;;5071101;28;20040;-62
2023/04/25 13:13:12;;;;;;;4.68;1.33;;;;;;;;;;5071462;28;20032;-62
2023/04/25 13:15:38;;;;;;;8.63;1.20;;;;;;;;;;5077214;28;20037;-62
2023/04/25 13:18:05;;;;;;;6.15;1.55;;;;;;;;;;5072029;28;20076;-62
2023/04/25 13:20:31;;;;;;;7.18;1.70;;;;;;;;;;5071324;28;20053;-63
2023/04/25 13:22:57;;;;;;;6.63;1.65;;;;;;;;;;5053796;28;20097;-62
2023/04/25 13:25:23;;;;;;;8.45;1.50;;;;;;;;;;5051626;28;20127;-62
2023/04/25 13:27:49;;;;;;;5.32;1.48;;;;;;;;;;5078936;28;20438;-62
2023/04/25 13:30:15;;;;;;;10.63;1.50;;;;;;;;;;5080940;28;20032;-62
2023/04/25 13:32:41;;;;;;;8.02;1.58;;;;;;;;;;5085775;28;20067;-62
2023/04/25 13:35:11;;;;;;;6.25;1.80;;;;;;;;;;5091633;28;20071;-62
2023/04/25 13:37:38;;;;;;;3.67;1.17;;;;;;;;;;5073225;28;20490;-62
2023/04/25 13:40:05;;;;;;;5.63;1.13;;;;;;;;;;5073679;28;20076;-62
2023/04/25 13:42:31;;;;;;;10.23;1.60;;;;;;;;;;5078521;28;20493;-62
2023/04/25 13:44:58;;;;;;;6.15;1.20;;;;;;;;;;5082561;28;20555;-62
2023/04/25 13:47:24;;;;;;;5.55;1.48;;;;;;;;;;5091489;28;20093;-62
2023/04/25 13:49:50;;;;;;;5.93;1.50;;;;;;;;;;5091733;28;20036;-62
2023/04/25 13:52:16;;;;;;;6.25;1.63;;;;;;;;;;5091035;28;20489;-62
2023/04/25 13:54:42;;;;;;;5.38;1.27;;;;;;;;;;5091509;28;20102;-62
2023/04/25 13:57:08;;;;;;;7.28;1.60;;;;;;;;;;5091028;28;20086;-62
2023/04/25 13:59:34;;;;;;;6.15;1.52;;;;;;;;;;5078700;28;20525;-62
2023/04/25 14:02:00;;;;;;;9.32;1.55;;;;;;;;;;5060081;28;20041;-62
2023/04/25 14:04:27;;;;;;;7.40;1.75;;;;;;;;;;5084503;28;20115;-62
2023/04/25 14:06:53;;;;;;;6.80;1.40;;;;;;;;;;5082246;28;20040;-62
2023/04/25 14:09:25;;;;;;;5.43;1.10;;;;;;;;;;5073383;28;20050;-62
2023/04/25 14:11:51;;;;;;;4.60;1.27;;;;;;;;;;5091117;28;20048;-62
2023/04/25 14:14:17;;;;;;;8.10;1.30;;;;;;;;;;5081608;28;20115;-62
2023/04/25 14:16:43;;;;;;;1.85;1.00;;;;;;;;;;5087316;28;20047;-62
2023/04/25 14:19:09;;;;;;;4.15;1.20;;;;;;;;;;5091520;28;20275;-61
2023/04/25 14:21:34;;;;;;;5.68;1.25;;;;;;;;;;5073005;28;20413;-61
2023/04/25 14:26:29;;;;;;;7.57;1.55;;;;;;;;;;4990129;28;20404;-65
2023/04/25 14:28:55;;;;;;;6.07;1.48;;;;;;;;;;4991164;28;20042;-65
2023/04/25 14:31:22;;;;;;;6.95;1.23;;;;;;;;;;5002136;28;20040;-65
2023/04/25 14:33:47;;;;;;;4.18;1.40;;;;;;;;;;4993836;28;20062;-64
2023/04/25 14:36:14;;;;;;;3.58;1.00;;;;;;;;;;4991271;28;20039;-64
2023/04/25 14:38:40;;;;;;;3.95;0.95;;;;;;;;;;4993596;28;20038;-64